MDT,Max TemperatureF,Mean TemperatureF,Min TemperatureF,Max Dew PointF,MeanDew PointF,Min DewpointF,Max Humidity, Mean Humidity, Min Humidity, Max Sea Level PressureIn, Mean Sea Level PressureIn, Min Sea Level PressureIn, Max VisibilityMiles, Mean VisibilityMiles, Min VisibilityMiles, Max Wind SpeedMPH, Mean Wind SpeedMPH, Max Gust SpeedMPH,PrecipitationIn, CloudCover, Events, WindDirDegrees
2013-6-1,68,50,32,39,33,28,89,58,26,30.24,30.12,29.96,10,10,10,13,3,17,0.00,0,,265
2013-6-2,61,50,39,44,37,29,89,59,29,29.97,29.87,29.81,10,10,10,18,5,28,0.03,4,Rain,302
2013-6-3,64,49,34,38,33,29,96,63,29,30.04,30.00,29.97,10,10,10,14,4,20,0.00,2,,299
2013-6-4,70,55,39,37,34,25,85,53,20,30.05,30.03,30.00,10,10,10,16,6,21,0.00,0,,330
2013-6-5,75,58,40,45,39,34,85,54,23,30.08,30.04,29.98,10,10,10,13,3,17,0.00,0,,311
2013-6-6,79,62,45,47,42,37,86,55,23,30.13,30.00,29.92,10,10,2,14,3,18,0.00,0,,317
2013-6-7,79,63,47,48,41,32,82,52,21,29.96,29.92,29.87,10,10,10,16,4,21,0.00,0,,281
2013-6-8,76,60,44,43,36,27,76,48,19,30.00,29.98,29.95,10,10,10,16,5,21,0.00,0,,290
2013-6-9,79,61,43,44,37,18,83,47,10,29.99,29.89,29.77,10,10,10,17,4,24,0.00,0,,283
2013-6-10,79,61,43,40,35,26,76,46,15,29.81,29.73,29.63,10,10,10,21,4,25,T,1,,284
2013-6-11,72,61,49,42,37,30,71,47,22,29.92,29.79,29.68,10,10,10,22,6,29,0.00,2,,227
2013-6-12,70,57,44,40,35,25,76,48,19,29.92,29.90,29.85,10,10,10,16,5,22,0.00,2,,259
2013-6-13,59,50,40,39,35,28,83,59,35,30.10,30.00,29.92,10,10,5,21,6,26,0.13,7,Rain-Thunderstorm,302
2013-6-14,58,48,37,38,35,29,92,63,33,30.21,30.15,30.08,10,10,9,10,3,15,T,5,,308
2013-6-15,71,52,32,35,29,22,89,53,16,30.12,30.04,29.96,10,10,10,12,2,17,0.00,0,,322
2013-6-16,81,61,40,41,31,22,76,44,11,30.00,29.95,29.91,10,10,10,15,3,26,0.00,0,,205
2013-6-17,80,62,43,40,34,27,71,43,15,30.06,29.92,29.80,10,10,10,18,5,24,0.00,1,,176
2013-6-18,76,59,42,46,39,30,83,51,19,29.85,29.76,29.66,10,10,7,21,6,30,0.11,1,Rain-Thunderstorm,258
2013-6-19,53,46,38,48,39,35,93,80,66,29.99,29.84,29.65,10,9,3,25,6,36,0.62,8,Rain-Thunderstorm,244
2013-6-20,55,46,37,37,35,31,92,67,41,30.04,30.02,29.99,10,10,6,16,7,22,0.03,7,Rain,158
2013-6-21,54,44,33,38,35,30,89,70,50,30.10,30.06,30.03,10,10,3,15,4,18,T,5,,19
2013-6-22,64,51,37,41,38,35,92,64,36,30.09,30.04,29.96,10,10,2,12,3,16,0.00,4,,265
2013-6-23,70,54,37,44,40,35,92,62,31,29.96,29.81,29.64,10,10,10,12,3,15,T,4,,338
2013-6-24,61,56,50,49,47,45,89,75,60,29.84,29.71,29.64,10,9,2,17,6,22,0.28,8,Rain-Thunderstorm,148
2013-6-25,56,53,49,50,48,45,96,87,77,30.00,29.91,29.80,10,10,5,18,4,23,0.37,8,Rain,163
2013-6-26,68,60,51,54,51,48,96,76,56,30.14,30.06,29.95,10,8,2,13,5,17,0.37,7,Rain,158
2013-6-27,81,63,45,55,49,45,100,65,30,30.27,30.20,30.13,10,6,0,14,4,18,0.00,3,Fog,198
2013-6-28,88,68,48,54,46,39,83,52,20,30.21,30.15,30.04,10,10,10,9,2,12,0.00,0,,188
2013-6-29,90,75,60,59,52,42,78,50,21,30.18,29.98,29.88,10,10,10,15,7,20,T,0,Rain-Thunderstorm,242
2013-6-30,90,74,58,60,54,39,87,52,17,30.04,29.99,29.93,10,10,10,12,3,16,0.00,0,,350